sensor_id;sensor_type;location;lat;lon;timestamp;P1;durP1;ratioP1;P2;durP2;ratioP2
20454;SDS011;10386;54.314;10.022;2023-03-14T00:01:07;26.73;;;4.40;;
20454;SDS011;10386;54.314;10.022;2023-03-14T00:03:38;26.70;;;4.57;;
20454;SDS011;10386;54.314;10.022;2023-03-14T00:06:05;23.63;;;4.10;;
20454;SDS011;10386;54.314;10.022;2023-03-14T00:08:32;20.27;;;4.73;;
20454;SDS011;10386;54.314;10.022;2023-03-14T00:11:07;31.47;;;5.23;;
20454;SDS011;10386;54.314;10.022;2023-03-14T00:13:35;26.33;;;4.17;;
20454;SDS011;10386;54.314;10.022;2023-03-14T00:16:03;17.80;;;3.87;;
20454;SDS011;10386;54.314;10.022;2023-03-14T00:18:34;28.70;;;4.77;;
20454;SDS011;10386;54.314;10.022;2023-03-14T00:21:02;35.20;;;5.83;;
20454;SDS011;10386;54.314;10.022;2023-03-14T00:23:31;21.73;;;4.27;;
20454;SDS011;10386;54.314;10.022;2023-03-14T00:26:00;32.57;;;4.70;;
20454;SDS011;10386;54.314;10.022;2023-03-14T00:28:27;31.43;;;5.67;;
20454;SDS011;10386;54.314;10.022;2023-03-14T00:30:54;23.83;;;4.47;;
20454;SDS011;10386;54.314;10.022;2023-03-14T00:33:21;23.57;;;5.07;;
20454;SDS011;10386;54.314;10.022;2023-03-14T00:36:08;24.33;;;4.70;;
20454;SDS011;10386;54.314;10.022;2023-03-14T00:38:37;34.17;;;5.27;;
20454;SDS011;10386;54.314;10.022;2023-03-14T00:41:08;31.90;;;4.73;;
20454;SDS011;10386;54.314;10.022;2023-03-14T00:43:37;22.53;;;4.43;;
20454;SDS011;10386;54.314;10.022;2023-03-14T00:46:04;23.97;;;4.10;;
20454;SDS011;10386;54.314;10.022;2023-03-14T00:48:31;23.53;;;4.50;;
20454;SDS011;10386;54.314;10.022;2023-03-14T00:50:58;22.43;;;4.00;;
20454;SDS011;10386;54.314;10.022;2023-03-14T00:53:24;31.73;;;5.17;;
20454;SDS011;10386;54.314;10.022;2023-03-14T00:55:51;23.23;;;4.50;;
20454;SDS011;10386;54.314;10.022;2023-03-14T00:58:18;23.17;;;4.00;;
20454;SDS011;10386;54.314;10.022;2023-03-14T01:00:45;16.93;;;5.07;;
20454;SDS011;10386;54.314;10.022;2023-03-14T01:03:12;19.27;;;4.30;;
20454;SDS011;10386;54.314;10.022;2023-03-14T01:05:40;24.73;;;4.17;;
20454;SDS011;10386;54.314;10.022;2023-03-14T01:08:07;26.43;;;4.57;;
20454;SDS011;10386;54.314;10.022;2023-03-14T01:10:34;24.10;;;4.20;;
20454;SDS011;10386;54.314;10.022;2023-03-14T01:13:03;26.53;;;5.00;;
20454;SDS011;10386;54.314;10.022;2023-03-14T01:15:31;19.50;;;4.13;;
20454;SDS011;10386;54.314;10.022;2023-03-14T01:17:59;27.30;;;4.10;;
20454;SDS011;10386;54.314;10.022;2023-03-14T01:20:25;28.67;;;4.63;;
20454;SDS011;10386;54.314;10.022;2023-03-14T01:22:52;19.80;;;4.00;;
20454;SDS011;10386;54.314;10.022;2023-03-14T01:25:19;26.20;;;4.30;;
20454;SDS011;10386;54.314;10.022;2023-03-14T01:27:46;25.60;;;4.97;;
20454;SDS011;10386;54.314;10.022;2023-03-14T01:30:12;20.47;;;5.27;;
20454;SDS011;10386;54.314;10.022;2023-03-14T01:32:39;24.13;;;4.77;;
20454;SDS011;10386;54.314;10.022;2023-03-14T01:35:06;21.33;;;3.50;;
20454;SDS011;10386;54.314;10.022;2023-03-14T01:37:33;19.03;;;4.10;;
20454;SDS011;10386;54.314;10.022;2023-03-14T01:40:00;27.03;;;4.33;;
20454;SDS011;10386;54.314;10.022;2023-03-14T01:42:27;19.23;;;4.27;;
20454;SDS011;10386;54.314;10.022;2023-03-14T01:44:55;21.57;;;4.93;;
20454;SDS011;10386;54.314;10.022;2023-03-14T01:47:24;19.93;;;4.47;;
20454;SDS011;10386;54.314;10.022;2023-03-14T01:52:34;30.88;;;4.97;;
20454;SDS011;10386;54.314;10.022;2023-03-14T01:55:10;31.77;;;4.93;;
20454;SDS011;10386;54.314;10.022;2023-03-14T01:57:43;29.70;;;4.87;;
20454;SDS011;10386;54.314;10.022;2023-03-14T02:00:13;21.70;;;3.70;;
20454;SDS011;10386;54.314;10.022;2023-03-14T02:02:45;27.33;;;4.20;;
20454;SDS011;10386;54.314;10.022;2023-03-14T02:05:14;31.43;;;4.63;;
20454;SDS011;10386;54.314;10.022;2023-03-14T02:07:51;20.47;;;5.50;;
20454;SDS011;10386;54.314;10.022;2023-03-14T02:10:27;17.93;;;4.00;;
20454;SDS011;10386;54.314;10.022;2023-03-14T02:12:56;19.97;;;4.17;;
20454;SDS011;10386;54.314;10.022;2023-03-14T02:15:28;30.53;;;4.60;;
20454;SDS011;10386;54.314;10.022;2023-03-14T02:17:55;28.10;;;4.40;;
20454;SDS011;10386;54.314;10.022;2023-03-14T02:20:25;19.13;;;4.03;;
20454;SDS011;10386;54.314;10.022;2023-03-14T02:22:57;22.40;;;4.90;;
20454;SDS011;10386;54.314;10.022;2023-03-14T02:28:00;22.33;;;4.53;;
20454;SDS011;10386;54.314;10.022;2023-03-14T02:30:28;19.87;;;3.90;;
20454;SDS011;10386;54.314;10.022;2023-03-14T02:32:58;26.17;;;5.13;;
20454;SDS011;10386;54.314;10.022;2023-03-14T02:35:31;21.83;;;4.10;;
20454;SDS011;10386;54.314;10.022;2023-03-14T02:40:57;25.57;;;4.33;;
20454;SDS011;10386;54.314;10.022;2023-03-14T02:43:24;30.10;;;4.53;;
20454;SDS011;10386;54.314;10.022;2023-03-14T02:45:51;14.97;;;3.83;;
20454;SDS011;10386;54.314;10.022;2023-03-14T02:48:20;21.50;;;4.43;;
20454;SDS011;10386;54.314;10.022;2023-03-14T02:50:51;28.90;;;4.70;;
20454;SDS011;10386;54.314;10.022;2023-03-14T02:53:21;24.27;;;4.80;;
20454;SDS011;10386;54.314;10.022;2023-03-14T02:55:51;18.80;;;3.90;;
20454;SDS011;10386;54.314;10.022;2023-03-14T02:58:19;18.73;;;4.43;;
20454;SDS011;10386;54.314;10.022;2023-03-14T03:00:46;18.50;;;3.80;;
20454;SDS011;10386;54.314;10.022;2023-03-14T03:03:13;20.50;;;4.13;;
20454;SDS011;10386;54.314;10.022;2023-03-14T03:05:41;19.57;;;4.27;;
20454;SDS011;10386;54.314;10.022;2023-03-14T03:08:10;21.53;;;4.37;;
20454;SDS011;10386;54.314;10.022;2023-03-14T03:10:37;25.30;;;4.15;;
20454;SDS011;10386;54.314;10.022;2023-03-14T03:13:03;21.63;;;4.00;;
20454;SDS011;10386;54.314;10.022;2023-03-14T03:15:30;21.67;;;4.23;;
20454;SDS011;10386;54.314;10.022;2023-03-14T03:17:57;24.10;;;4.57;;
20454;SDS011;10386;54.314;10.022;2023-03-14T03:20:24;23.43;;;4.90;;
20454;SDS011;10386;54.314;10.022;2023-03-14T03:22:50;21.13;;;3.57;;
20454;SDS011;10386;54.314;10.022;2023-03-14T03:25:17;13.93;;;3.70;;
20454;SDS011;10386;54.314;10.022;2023-03-14T03:27:44;18.30;;;3.83;;
20454;SDS011;10386;54.314;10.022;2023-03-14T03:30:11;17.07;;;4.00;;
20454;SDS011;10386;54.314;10.022;2023-03-14T03:32:38;22.90;;;4.30;;
20454;SDS011;10386;54.314;10.022;2023-03-14T03:35:05;17.27;;;4.50;;
20454;SDS011;10386;54.314;10.022;2023-03-14T03:37:32;16.57;;;3.73;;
20454;SDS011;10386;54.314;10.022;2023-03-14T03:40:00;15.20;;;3.93;;
20454;SDS011;10386;54.314;10.022;2023-03-14T03:42:27;14.53;;;3.60;;
20454;SDS011;10386;54.314;10.022;2023-03-14T03:44:55;23.33;;;4.20;;
20454;SDS011;10386;54.314;10.022;2023-03-14T03:47:21;20.43;;;3.67;;
20454;SDS011;10386;54.314;10.022;2023-03-14T03:49:48;15.33;;;3.73;;
20454;SDS011;10386;54.314;10.022;2023-03-14T03:52:15;17.97;;;3.63;;
20454;SDS011;10386;54.314;10.022;2023-03-14T03:54:41;16.90;;;3.93;;
20454;SDS011;10386;54.314;10.022;2023-03-14T03:57:08;14.67;;;4.00;;
20454;SDS011;10386;54.314;10.022;2023-03-14T03:59:35;19.37;;;3.73;;
20454;SDS011;10386;54.314;10.022;2023-03-14T04:02:01;13.20;;;3.73;;
20454;SDS011;10386;54.314;10.022;2023-03-14T04:04:28;17.47;;;4.47;;
20454;SDS011;10386;54.314;10.022;2023-03-14T04:06:55;13.43;;;4.10;;
20454;SDS011;10386;54.314;10.022;2023-03-14T04:09:22;14.13;;;4.77;;
20454;SDS011;10386;54.314;10.022;2023-03-14T04:11:48;16.47;;;5.10;;
20454;SDS011;10386;54.314;10.022;2023-03-14T04:14:15;19.33;;;4.63;;
20454;SDS011;10386;54.314;10.022;2023-03-14T04:16:42;15.53;;;4.70;;
20454;SDS011;10386;54.314;10.022;2023-03-14T04:19:09;20.73;;;5.03;;
20454;SDS011;10386;54.314;10.022;2023-03-14T04:21:35;21.83;;;5.73;;
20454;SDS011;10386;54.314;10.022;2023-03-14T04:24:02;14.80;;;4.83;;
20454;SDS011;10386;54.314;10.022;2023-03-14T04:26:29;12.60;;;4.77;;
20454;SDS011;10386;54.314;10.022;2023-03-14T04:28:56;15.40;;;4.17;;
20454;SDS011;10386;54.314;10.022;2023-03-14T04:31:22;9.43;;;3.60;;
20454;SDS011;10386;54.314;10.022;2023-03-14T04:33:49;12.27;;;3.80;;
20454;SDS011;10386;54.314;10.022;2023-03-14T04:36:16;12.73;;;3.53;;
20454;SDS011;10386;54.314;10.022;2023-03-14T04:38:42;10.37;;;3.50;;
20454;SDS011;10386;54.314;10.022;2023-03-14T04:41:09;12.13;;;3.97;;
20454;SDS011;10386;54.314;10.022;2023-03-14T04:43:36;9.57;;;4.00;;
20454;SDS011;10386;54.314;10.022;2023-03-14T04:46:02;11.53;;;3.73;;
20454;SDS011;10386;54.314;10.022;2023-03-14T04:48:29;10.57;;;3.30;;
20454;SDS011;10386;54.314;10.022;2023-03-14T04:50:56;10.87;;;3.30;;
20454;SDS011;10386;54.314;10.022;2023-03-14T04:53:23;9.00;;;3.87;;
20454;SDS011;10386;54.314;10.022;2023-03-14T04:55:54;13.10;;;3.77;;
20454;SDS011;10386;54.314;10.022;2023-03-14T04:58:22;9.73;;;3.27;;
20454;SDS011;10386;54.314;10.022;2023-03-14T05:00:49;11.70;;;3.70;;
20454;SDS011;10386;54.314;10.022;2023-03-14T05:03:16;8.37;;;3.67;;
20454;SDS011;10386;54.314;10.022;2023-03-14T05:05:45;9.40;;;3.90;;
20454;SDS011;10386;54.314;10.022;2023-03-14T05:08:12;5.47;;;3.30;;
20454;SDS011;10386;54.314;10.022;2023-03-14T05:10:39;8.77;;;3.13;;
20454;SDS011;10386;54.314;10.022;2023-03-14T05:13:05;8.87;;;3.30;;
20454;SDS011;10386;54.314;10.022;2023-03-14T05:15:32;11.93;;;3.40;;
20454;SDS011;10386;54.314;10.022;2023-03-14T05:17:59;5.50;;;2.83;;
20454;SDS011;10386;54.314;10.022;2023-03-14T05:20:26;6.63;;;3.23;;
20454;SDS011;10386;54.314;10.022;2023-03-14T05:22:52;5.70;;;3.33;;
20454;SDS011;10386;54.314;10.022;2023-03-14T05:25:19;7.40;;;3.03;;
20454;SDS011;10386;54.314;10.022;2023-03-14T05:27:46;6.27;;;2.83;;
20454;SDS011;10386;54.314;10.022;2023-03-14T05:30:13;7.33;;;2.67;;
20454;SDS011;10386;54.314;10.022;2023-03-14T05:32:39;8.20;;;3.00;;
20454;SDS011;10386;54.314;10.022;2023-03-14T05:35:06;8.70;;;3.07;;
20454;SDS011;10386;54.314;10.022;2023-03-14T05:37:33;9.40;;;2.83;;
20454;SDS011;10386;54.314;10.022;2023-03-14T05:40:00;8.10;;;3.57;;
20454;SDS011;10386;54.314;10.022;2023-03-14T05:42:27;6.53;;;2.67;;
20454;SDS011;10386;54.314;10.022;2023-03-14T05:44:54;12.40;;;2.60;;
20454;SDS011;10386;54.314;10.022;2023-03-14T05:47:22;7.03;;;2.37;;
20454;SDS011;10386;54.314;10.022;2023-03-14T05:49:49;10.03;;;2.87;;
20454;SDS011;10386;54.314;10.022;2023-03-14T05:52:16;8.10;;;2.77;;
20454;SDS011;10386;54.314;10.022;2023-03-14T05:54:43;7.23;;;2.83;;
20454;SDS011;10386;54.314;10.022;2023-03-14T05:57:09;10.97;;;3.00;;
20454;SDS011;10386;54.314;10.022;2023-03-14T05:59:36;6.77;;;2.43;;
20454;SDS011;10386;54.314;10.022;2023-03-14T06:02:03;8.57;;;2.90;;
20454;SDS011;10386;54.314;10.022;2023-03-14T06:04:29;11.13;;;2.97;;
20454;SDS011;10386;54.314;10.022;2023-03-14T06:06:56;8.37;;;2.97;;
20454;SDS011;10386;54.314;10.022;2023-03-14T06:09:23;6.50;;;2.80;;
20454;SDS011;10386;54.314;10.022;2023-03-14T06:11:50;13.57;;;3.13;;
20454;SDS011;10386;54.314;10.022;2023-03-14T06:14:17;13.77;;;2.97;;
20454;SDS011;10386;54.314;10.022;2023-03-14T06:16:44;8.93;;;3.23;;
20454;SDS011;10386;54.314;10.022;2023-03-14T06:19:11;15.40;;;3.30;;
20454;SDS011;10386;54.314;10.022;2023-03-14T06:21:38;10.07;;;3.40;;
20454;SDS011;10386;54.314;10.022;2023-03-14T06:24:04;16.07;;;3.40;;
20454;SDS011;10386;54.314;10.022;2023-03-14T06:26:31;14.00;;;3.50;;
20454;SDS011;10386;54.314;10.022;2023-03-14T06:28:58;10.67;;;3.03;;
20454;SDS011;10386;54.314;10.022;2023-03-14T06:31:30;9.87;;;3.60;;
20454;SDS011;10386;54.314;10.022;2023-03-14T06:33:57;18.17;;;4.57;;
20454;SDS011;10386;54.314;10.022;2023-03-14T06:36:24;11.23;;;3.67;;
20454;SDS011;10386;54.314;10.022;2023-03-14T06:38:51;12.70;;;5.10;;
20454;SDS011;10386;54.314;10.022;2023-03-14T06:41:17;15.97;;;4.47;;
20454;SDS011;10386;54.314;10.022;2023-03-14T06:43:44;14.77;;;4.40;;
20454;SDS011;10386;54.314;10.022;2023-03-14T06:46:11;12.33;;;4.77;;
20454;SDS011;10386;54.314;10.022;2023-03-14T06:48:38;11.13;;;4.30;;
20454;SDS011;10386;54.314;10.022;2023-03-14T06:51:04;17.53;;;4.40;;
20454;SDS011;10386;54.314;10.022;2023-03-14T06:53:32;16.47;;;4.90;;
20454;SDS011;10386;54.314;10.022;2023-03-14T06:55:59;16.17;;;5.07;;
20454;SDS011;10386;54.314;10.022;2023-03-14T06:58:26;14.40;;;4.60;;
20454;SDS011;10386;54.314;10.022;2023-03-14T07:00:53;17.80;;;5.17;;
20454;SDS011;10386;54.314;10.022;2023-03-14T07:03:20;13.10;;;4.80;;
20454;SDS011;10386;54.314;10.022;2023-03-14T07:05:48;17.43;;;4.50;;
20454;SDS011;10386;54.314;10.022;2023-03-14T07:08:14;13.10;;;4.70;;
20454;SDS011;10386;54.314;10.022;2023-03-14T07:10:41;8.00;;;4.17;;
20454;SDS011;10386;54.314;10.022;2023-03-14T07:13:08;6.77;;;3.70;;
20454;SDS011;10386;54.314;10.022;2023-03-14T07:15:34;9.00;;;4.13;;
20454;SDS011;10386;54.314;10.022;2023-03-14T07:18:01;11.37;;;3.97;;
20454;SDS011;10386;54.314;10.022;2023-03-14T07:20:28;13.73;;;4.10;;
20454;SDS011;10386;54.314;10.022;2023-03-14T07:22:55;17.03;;;3.73;;
20454;SDS011;10386;54.314;10.022;2023-03-14T07:25:22;12.13;;;3.67;;
20454;SDS011;10386;54.314;10.022;2023-03-14T07:27:49;9.53;;;4.13;;
20454;SDS011;10386;54.314;10.022;2023-03-14T07:30:15;13.73;;;4.20;;
20454;SDS011;10386;54.314;10.022;2023-03-14T07:32:42;9.77;;;3.50;;
20454;SDS011;10386;54.314;10.022;2023-03-14T07:35:09;11.47;;;4.50;;
20454;SDS011;10386;54.314;10.022;2023-03-14T07:37:36;13.93;;;4.27;;
20454;SDS011;10386;54.314;10.022;2023-03-14T07:40:03;18.33;;;4.57;;
20454;SDS011;10386;54.314;10.022;2023-03-14T07:42:33;10.63;;;3.60;;
20454;SDS011;10386;54.314;10.022;2023-03-14T07:45:00;10.60;;;3.70;;
20454;SDS011;10386;54.314;10.022;2023-03-14T07:47:26;5.63;;;3.60;;
20454;SDS011;10386;54.314;10.022;2023-03-14T07:49:53;8.93;;;3.80;;
20454;SDS011;10386;54.314;10.022;2023-03-14T07:52:20;10.23;;;3.80;;
20454;SDS011;10386;54.314;10.022;2023-03-14T07:54:46;14.13;;;3.83;;
20454;SDS011;10386;54.314;10.022;2023-03-14T07:57:13;9.60;;;3.70;;
20454;SDS011;10386;54.314;10.022;2023-03-14T07:59:40;11.00;;;3.97;;
20454;SDS011;10386;54.314;10.022;2023-03-14T08:02:08;8.50;;;3.47;;
20454;SDS011;10386;54.314;10.022;2023-03-14T08:04:38;6.00;;;3.30;;
20454;SDS011;10386;54.314;10.022;2023-03-14T08:07:06;8.03;;;3.60;;
20454;SDS011;10386;54.314;10.022;2023-03-14T08:09:32;11.50;;;3.63;;
20454;SDS011;10386;54.314;10.022;2023-03-14T08:11:59;9.40;;;3.60;;
20454;SDS011;10386;54.314;10.022;2023-03-14T08:14:26;9.77;;;3.77;;
20454;SDS011;10386;54.314;10.022;2023-03-14T08:16:52;5.83;;;3.37;;
20454;SDS011;10386;54.314;10.022;2023-03-14T08:19:19;8.37;;;3.73;;
20454;SDS011;10386;54.314;10.022;2023-03-14T08:21:47;7.73;;;3.50;;
20454;SDS011;10386;54.314;10.022;2023-03-14T08:24:13;9.60;;;3.53;;
20454;SDS011;10386;54.314;10.022;2023-03-14T08:26:40;11.53;;;3.80;;
20454;SDS011;10386;54.314;10.022;2023-03-14T08:29:07;8.17;;;3.27;;
20454;SDS011;10386;54.314;10.022;2023-03-14T08:31:34;7.63;;;3.53;;
20454;SDS011;10386;54.314;10.022;2023-03-14T08:34:02;6.67;;;3.63;;
20454;SDS011;10386;54.314;10.022;2023-03-14T08:36:29;7.17;;;3.40;;
20454;SDS011;10386;54.314;10.022;2023-03-14T08:38:57;9.30;;;3.33;;
20454;SDS011;10386;54.314;10.022;2023-03-14T08:41:24;9.57;;;3.17;;
20454;SDS011;10386;54.314;10.022;2023-03-14T08:43:50;6.77;;;3.00;;
20454;SDS011;10386;54.314;10.022;2023-03-14T08:46:17;5.73;;;2.40;;
20454;SDS011;10386;54.314;10.022;2023-03-14T08:48:44;3.30;;;1.97;;
20454;SDS011;10386;54.314;10.022;2023-03-14T08:51:11;3.90;;;1.60;;
20454;SDS011;10386;54.314;10.022;2023-03-14T08:53:40;1.50;;;1.37;;
20454;SDS011;10386;54.314;10.022;2023-03-14T08:56:07;1.53;;;1.40;;
20454;SDS011;10386;54.314;10.022;2023-03-14T08:58:36;2.53;;;1.40;;
20454;SDS011;10386;54.314;10.022;2023-03-14T09:01:05;2.00;;;1.50;;
20454;SDS011;10386;54.314;10.022;2023-03-14T09:03:32;3.47;;;1.93;;
20454;SDS011;10386;54.314;10.022;2023-03-14T09:06:02;1.70;;;1.60;;
20454;SDS011;10386;54.314;10.022;2023-03-14T09:08:33;5.10;;;1.60;;
20454;SDS011;10386;54.314;10.022;2023-03-14T09:11:08;3.90;;;1.40;;
20454;SDS011;10386;54.314;10.022;2023-03-14T09:13:35;1.30;;;1.20;;
20454;SDS011;10386;54.314;10.022;2023-03-14T09:16:02;1.80;;;1.37;;
20454;SDS011;10386;54.314;10.022;2023-03-14T09:18:29;1.23;;;1.13;;
20454;SDS011;10386;54.314;10.022;2023-03-14T09:20:56;1.70;;;1.10;;
20454;SDS011;10386;54.314;10.022;2023-03-14T09:23:23;1.93;;;1.20;;
20454;SDS011;10386;54.314;10.022;2023-03-14T09:25:59;2.83;;;1.30;;
20454;SDS011;10386;54.314;10.022;2023-03-14T09:28:26;4.97;;;1.47;;
20454;SDS011;10386;54.314;10.022;2023-03-14T09:30:53;3.13;;;1.30;;
20454;SDS011;10386;54.314;10.022;2023-03-14T09:33:20;5.80;;;1.20;;
20454;SDS011;10386;54.314;10.022;2023-03-14T09:35:47;4.20;;;1.50;;
20454;SDS011;10386;54.314;10.022;2023-03-14T09:38:14;4.33;;;1.30;;
20454;SDS011;10386;54.314;10.022;2023-03-14T09:40:42;2.57;;;1.40;;
20454;SDS011;10386;54.314;10.022;2023-03-14T09:43:10;6.20;;;1.40;;
20454;SDS011;10386;54.314;10.022;2023-03-14T09:45:40;6.10;;;1.67;;
20454;SDS011;10386;54.314;10.022;2023-03-14T09:48:14;4.93;;;1.43;;
20454;SDS011;10386;54.314;10.022;2023-03-14T09:50:50;3.30;;;1.07;;
20454;SDS011;10386;54.314;10.022;2023-03-14T09:53:33;3.63;;;1.47;;
20454;SDS011;10386;54.314;10.022;2023-03-14T09:56:04;3.53;;;1.23;;
20454;SDS011;10386;54.314;10.022;2023-03-14T09:58:55;4.27;;;1.40;;
20454;SDS011;10386;54.314;10.022;2023-03-14T10:01:25;4.50;;;1.97;;
20454;SDS011;10386;54.314;10.022;2023-03-14T10:03:59;4.60;;;1.50;;
20454;SDS011;10386;54.314;10.022;2023-03-14T10:06:30;1.57;;;1.10;;
20454;SDS011;10386;54.314;10.022;2023-03-14T10:08:57;2.37;;;1.13;;
20454;SDS011;10386;54.314;10.022;2023-03-14T10:11:24;3.10;;;1.10;;
20454;SDS011;10386;54.314;10.022;2023-03-14T10:14:13;2.83;;;1.07;;
20454;SDS011;10386;54.314;10.022;2023-03-14T10:16:54;5.53;;;1.10;;
20454;SDS011;10386;54.314;10.022;2023-03-14T10:19:20;2.97;;;0.93;;
20454;SDS011;10386;54.314;10.022;2023-03-14T10:21:51;3.23;;;1.17;;
20454;SDS011;10386;54.314;10.022;2023-03-14T10:24:26;1.87;;;0.93;;
20454;SDS011;10386;54.314;10.022;2023-03-14T10:27:01;2.33;;;1.10;;
20454;SDS011;10386;54.314;10.022;2023-03-14T10:29:31;1.60;;;1.00;;
20454;SDS011;10386;54.314;10.022;2023-03-14T10:34:34;2.83;;;1.20;;
20454;SDS011;10386;54.314;10.022;2023-03-14T10:37:07;6.90;;;1.40;;
20454;SDS011;10386;54.314;10.022;2023-03-14T10:39:47;4.00;;;1.47;;
20454;SDS011;10386;54.314;10.022;2023-03-14T10:44:57;2.77;;;1.20;;
20454;SDS011;10386;54.314;10.022;2023-03-14T10:47:27;6.63;;;1.40;;
20454;SDS011;10386;54.314;10.022;2023-03-14T10:49:55;11.70;;;1.50;;
20454;SDS011;10386;54.314;10.022;2023-03-14T10:52:27;6.30;;;2.20;;
20454;SDS011;10386;54.314;10.022;2023-03-14T10:55:02;4.33;;;1.40;;
20454;SDS011;10386;54.314;10.022;2023-03-14T10:57:41;2.83;;;1.40;;
20454;SDS011;10386;54.314;10.022;2023-03-14T11:00:27;4.27;;;1.40;;
20454;SDS011;10386;54.314;10.022;2023-03-14T11:03:03;5.47;;;1.60;;
20454;SDS011;10386;54.314;10.022;2023-03-14T11:05:41;10.07;;;2.10;;
20454;SDS011;10386;54.314;10.022;2023-03-14T11:08:29;5.90;;;2.00;;
20454;SDS011;10386;54.314;10.022;2023-03-14T11:17:02;10.93;;;2.00;;
20454;SDS011;10386;54.314;10.022;2023-03-14T11:19:52;4.43;;;1.90;;
20454;SDS011;10386;54.314;10.022;2023-03-14T11:25:24;8.43;;;1.93;;
20454;SDS011;10386;54.314;10.022;2023-03-14T11:30:35;7.80;;;2.20;;
20454;SDS011;10386;54.314;10.022;2023-03-14T11:33:20;7.13;;;2.10;;
20454;SDS011;10386;54.314;10.022;2023-03-14T11:35:58;6.27;;;2.37;;
20454;SDS011;10386;54.314;10.022;2023-03-14T11:38:32;5.47;;;1.93;;
20454;SDS011;10386;54.314;10.022;2023-03-14T11:41:09;10.50;;;2.67;;
20454;SDS011;10386;54.314;10.022;2023-03-14T11:43:40;12.80;;;2.40;;
20454;SDS011;10386;54.314;10.022;2023-03-14T11:46:10;8.57;;;2.03;;
20454;SDS011;10386;54.314;10.022;2023-03-14T11:51:46;6.77;;;2.17;;
20454;SDS011;10386;54.314;10.022;2023-03-14T11:57:10;9.87;;;1.90;;
20454;SDS011;10386;54.314;10.022;2023-03-14T12:05:50;16.07;;;2.67;;
20454;SDS011;10386;54.314;10.022;2023-03-14T12:11:31;8.33;;;2.00;;
20454;SDS011;10386;54.314;10.022;2023-03-14T12:13:59;7.43;;;2.40;;
20454;SDS011;10386;54.314;10.022;2023-03-14T12:16:31;10.73;;;2.10;;
20454;SDS011;10386;54.314;10.022;2023-03-14T12:19:13;14.03;;;3.70;;
20454;SDS011;10386;54.314;10.022;2023-03-14T12:21:46;13.33;;;2.77;;
20454;SDS011;10386;54.314;10.022;2023-03-14T12:24:19;10.30;;;2.03;;
20454;SDS011;10386;54.314;10.022;2023-03-14T12:26:52;11.30;;;2.17;;
20454;SDS011;10386;54.314;10.022;2023-03-14T12:29:21;12.20;;;2.67;;
20454;SDS011;10386;54.314;10.022;2023-03-14T12:31:48;11.43;;;2.50;;
20454;SDS011;10386;54.314;10.022;2023-03-14T12:34:42;14.47;;;2.50;;
20454;SDS011;10386;54.314;10.022;2023-03-14T12:45:24;16.47;;;3.20;;
20454;SDS011;10386;54.314;10.022;2023-03-14T12:47:55;19.23;;;2.73;;
20454;SDS011;10386;54.314;10.022;2023-03-14T12:50:31;17.53;;;2.47;;
20454;SDS011;10386;54.314;10.022;2023-03-14T12:55:51;13.50;;;2.73;;
20454;SDS011;10386;54.314;10.022;2023-03-14T13:01:16;9.37;;;2.10;;
20454;SDS011;10386;54.314;10.022;2023-03-14T13:03:50;15.17;;;2.43;;
20454;SDS011;10386;54.314;10.022;2023-03-14T13:12:02;13.43;;;2.37;;
20454;SDS011;10386;54.314;10.022;2023-03-14T13:14:35;11.43;;;2.40;;
20454;SDS011;10386;54.314;10.022;2023-03-14T13:17:03;14.23;;;2.30;;
20454;SDS011;10386;54.314;10.022;2023-03-14T13:19:50;14.10;;;3.10;;
20454;SDS011;10386;54.314;10.022;2023-03-14T13:22:21;15.40;;;2.67;;
20454;SDS011;10386;54.314;10.022;2023-03-14T13:24:58;11.67;;;1.77;;
20454;SDS011;10386;54.314;10.022;2023-03-14T13:27:36;6.97;;;1.77;;
20454;SDS011;10386;54.314;10.022;2023-03-14T13:32:51;12.83;;;1.97;;
20454;SDS011;10386;54.314;10.022;2023-03-14T13:35:24;10.30;;;2.17;;
20454;SDS011;10386;54.314;10.022;2023-03-14T13:37:53;7.53;;;2.10;;
20454;SDS011;10386;54.314;10.022;2023-03-14T13:40:37;9.10;;;1.67;;
20454;SDS011;10386;54.314;10.022;2023-03-14T13:43:11;4.77;;;1.30;;
20454;SDS011;10386;54.314;10.022;2023-03-14T13:45:51;8.43;;;2.13;;
20454;SDS011;10386;54.314;10.022;2023-03-14T13:48:22;5.60;;;1.73;;
20454;SDS011;10386;54.314;10.022;2023-03-14T13:51:07;7.67;;;1.80;;
20454;SDS011;10386;54.314;10.022;2023-03-14T13:53:50;5.97;;;1.77;;
20454;SDS011;10386;54.314;10.022;2023-03-14T13:56:18;5.23;;;1.50;;
20454;SDS011;10386;54.314;10.022;2023-03-14T13:58:45;5.00;;;1.40;;
20454;SDS011;10386;54.314;10.022;2023-03-14T14:01:14;6.20;;;1.73;;
20454;SDS011;10386;54.314;10.022;2023-03-14T14:03:44;9.80;;;1.73;;
20454;SDS011;10386;54.314;10.022;2023-03-14T14:09:01;10.53;;;2.10;;
20454;SDS011;10386;54.314;10.022;2023-03-14T14:11:41;8.87;;;1.40;;
20454;SDS011;10386;54.314;10.022;2023-03-14T14:14:34;14.47;;;2.30;;
20454;SDS011;10386;54.314;10.022;2023-03-14T14:17:08;13.50;;;2.10;;
20454;SDS011;10386;54.314;10.022;2023-03-14T14:19:39;10.57;;;1.60;;
20454;SDS011;10386;54.314;10.022;2023-03-14T14:22:10;6.33;;;1.60;;
20454;SDS011;10386;54.314;10.022;2023-03-14T14:24:37;5.90;;;1.67;;
20454;SDS011;10386;54.314;10.022;2023-03-14T14:27:18;7.17;;;2.10;;
20454;SDS011;10386;54.314;10.022;2023-03-14T14:30:00;3.83;;;1.60;;
20454;SDS011;10386;54.314;10.022;2023-03-14T14:32:39;5.07;;;1.50;;
20454;SDS011;10386;54.314;10.022;2023-03-14T14:35:08;7.80;;;1.80;;
20454;SDS011;10386;54.314;10.022;2023-03-14T14:37:41;5.33;;;2.10;;
20454;SDS011;10386;54.314;10.022;2023-03-14T14:40:13;7.87;;;2.10;;
20454;SDS011;10386;54.314;10.022;2023-03-14T14:42:45;6.73;;;1.70;;
20454;SDS011;10386;54.314;10.022;2023-03-14T14:45:16;8.70;;;1.90;;
20454;SDS011;10386;54.314;10.022;2023-03-14T14:48:04;3.70;;;1.40;;
20454;SDS011;10386;54.314;10.022;2023-03-14T14:50:39;9.17;;;2.00;;
20454;SDS011;10386;54.314;10.022;2023-03-14T14:55:50;11.80;;;2.20;;
20454;SDS011;10386;54.314;10.022;2023-03-14T15:00:59;6.00;;;2.00;;
20454;SDS011;10386;54.314;10.022;2023-03-14T15:03:47;6.50;;;1.93;;
20454;SDS011;10386;54.314;10.022;2023-03-14T15:06:17;12.70;;;3.03;;
20454;SDS011;10386;54.314;10.022;2023-03-14T15:08:44;8.37;;;2.47;;
20454;SDS011;10386;54.314;10.022;2023-03-14T15:11:16;13.17;;;2.50;;
20454;SDS011;10386;54.314;10.022;2023-03-14T15:13:44;15.87;;;3.90;;
20454;SDS011;10386;54.314;10.022;2023-03-14T15:16:12;10.90;;;2.03;;
20454;SDS011;10386;54.314;10.022;2023-03-14T15:18:41;7.60;;;2.03;;
20454;SDS011;10386;54.314;10.022;2023-03-14T15:21:09;7.33;;;2.10;;
20454;SDS011;10386;54.314;10.022;2023-03-14T15:23:37;7.73;;;1.90;;
20454;SDS011;10386;54.314;10.022;2023-03-14T15:26:08;5.20;;;1.70;;
20454;SDS011;10386;54.314;10.022;2023-03-14T15:28:40;5.50;;;1.90;;
20454;SDS011;10386;54.314;10.022;2023-03-14T15:31:10;10.07;;;1.53;;
20454;SDS011;10386;54.314;10.022;2023-03-14T15:33:38;10.10;;;2.10;;
20454;SDS011;10386;54.314;10.022;2023-03-14T15:36:06;9.47;;;2.03;;
20454;SDS011;10386;54.314;10.022;2023-03-14T15:38:43;11.83;;;2.17;;
20454;SDS011;10386;54.314;10.022;2023-03-14T15:41:09;7.57;;;2.30;;
20454;SDS011;10386;54.314;10.022;2023-03-14T15:43:36;7.53;;;1.70;;
20454;SDS011;10386;54.314;10.022;2023-03-14T15:46:03;8.60;;;2.57;;
20454;SDS011;10386;54.314;10.022;2023-03-14T15:48:32;9.27;;;2.30;;
20454;SDS011;10386;54.314;10.022;2023-03-14T15:50:59;10.80;;;2.93;;
20454;SDS011;10386;54.314;10.022;2023-03-14T15:53:26;16.80;;;2.53;;